Time;durP1;ratioP1;P1;durP2;ratioP2;P2;SDS_P1;SDS_P2;PMS_P1;PMS_P2;Temp;Humidity;BMP_temperature;BMP_pressure;BME280_temperature;BME280_humidity;BME280_pressure;Samples;Min_cycle;Max_cycle;Signal;HPM_P1;HPM_P2
2022/03/01 00:00:28;;;;;;;1999.90;999.90;;;;;;;-4.03;48.88;102949.19;5014643;27;98283;-69
2022/03/01 00:02:58;;;;;;;1999.90;999.90;;;;;;;-4.07;49.04;102949.59;5011402;27;97843;-70
2022/03/01 00:05:27;;;;;;;1999.90;999.90;;;;;;;-4.10;49.19;102933.66;5016125;27;97603;-70
2022/03/01 00:07:54;;;;;;;1999.90;999.90;;;;;;;-4.14;48.76;102935.72;5013241;28;97192;-70
2022/03/01 00:10:22;;;;;;;1999.90;999.90;;;;;;;-4.17;49.36;102944.09;5011750;28;97721;-70
2022/03/01 00:12:50;;;;;;;1999.90;999.90;;;;;;;-4.21;49.31;102935.78;5018168;28;97728;-70
2022/03/01 00:15:18;;;;;;;1999.90;999.90;;;;;;;-4.21;49.24;102922.78;5016482;27;99040;-69
2022/03/01 00:17:45;;;;;;;1999.90;999.90;;;;;;;-4.22;49.32;102927.06;5015719;28;97573;-70
2022/03/01 00:20:15;;;;;;;1999.90;999.90;;;;;;;-4.24;49.19;102933.75;5017150;27;98106;-69
2022/03/01 00:22:42;;;;;;;1999.90;999.90;;;;;;;-4.23;49.37;102925.22;5012197;27;97158;-69
2022/03/01 00:25:10;;;;;;;1999.90;999.90;;;;;;;-4.24;49.24;102922.44;5013173;28;98329;-69
2022/03/01 00:27:38;;;;;;;1999.90;999.90;;;;;;;-4.25;49.41;102936.16;5019396;28;98157;-69
2022/03/01 00:30:07;;;;;;;1999.90;999.90;;;;;;;-4.28;49.46;102931.53;5013196;27;98043;-68
2022/03/01 00:32:36;;;;;;;1999.90;999.90;;;;;;;-4.29;49.36;102933.97;5011865;28;98178;-68
2022/03/01 00:35:05;;;;;;;1999.90;999.90;;;;;;;-4.29;49.56;102936.56;5016433;27;100603;-69
2022/03/01 00:37:34;;;;;;;1999.90;999.90;;;;;;;-4.31;49.57;102926.00;5014294;28;97583;-69
2022/03/01 00:40:01;;;;;;;1999.90;999.90;;;;;;;-4.31;49.52;102926.00;5034227;27;97616;-70
2022/03/01 00:42:29;;;;;;;1999.90;999.90;;;;;;;-4.31;49.75;102928.59;5014105;28;98841;-69
2022/03/01 00:44:57;;;;;;;1999.90;999.90;;;;;;;-4.31;49.75;102920.81;5000729;28;100048;-69
2022/03/01 00:47:25;;;;;;;1999.90;999.90;;;;;;;-4.30;49.76;102922.66;5015846;28;97643;-69
2022/03/01 00:49:52;;;;;;;1999.90;999.90;;;;;;;-4.33;49.78;102914.50;5019792;27;98296;-69
2022/03/01 00:52:20;;;;;;;1999.90;999.90;;;;;;;-4.37;49.72;102916.59;5015707;28;97474;-69
2022/03/01 00:54:49;;;;;;;1999.90;999.90;;;;;;;-4.40;49.93;102917.16;5034447;27;98748;-69
2022/03/01 00:57:18;;;;;;;1999.90;999.90;;;;;;;-4.44;49.78;102909.75;5015697;28;101077;-68
2022/03/01 00:59:45;;;;;;;1999.90;999.90;;;;;;;-4.45;50.14;102907.00;5019378;28;99101;-68
2022/03/01 01:02:13;;;;;;;1999.90;999.90;;;;;;;-4.45;50.03;102909.59;5020788;28;98617;-69
2022/03/01 01:04:41;;;;;;;1999.90;999.90;;;;;;;-4.44;49.91;102909.75;5019163;27;97621;-69
2022/03/01 01:07:10;;;;;;;1999.90;999.90;;;;;;;-4.44;49.63;102906.25;5019542;27;97208;-68
2022/03/01 01:09:38;;;;;;;1999.90;999.90;;;;;;;-4.44;50.05;102914.94;5023362;27;97622;-69
2022/03/01 01:12:08;;;;;;;1999.90;999.90;;;;;;;-4.42;50.07;102899.53;5021256;28;99163;-68
2022/03/01 01:14:35;;;;;;;1999.90;999.90;;;;;;;-3.89;48.66;102899.66;5015863;28;97736;-69
2022/03/01 01:17:04;;;;;;;1999.90;999.90;;;;;;;-4.18;48.97;102892.88;5022936;27;97873;-68
2022/03/01 01:19:31;;;;;;;1999.90;999.90;;;;;;;-4.25;49.37;102905.91;5036837;27;97051;-70
2022/03/01 01:24:45;;;;;;;1999.90;999.90;;;;;;;-4.33;49.55;102895.38;5018783;28;97240;-69
2022/03/01 01:27:15;;;;;;;1999.90;999.90;;;;;;;-4.34;49.71;102898.75;5021144;27;98087;-69
2022/03/01 01:29:43;;;;;;;1999.90;999.90;;;;;;;-4.32;49.83;102895.59;5018933;28;97109;-69
2022/03/01 01:32:11;;;;;;;1999.90;999.90;;;;;;;-4.33;49.80;102896.31;5020227;27;98986;-69
2022/03/01 01:34:38;;;;;;;1999.90;999.90;;;;;;;-4.34;49.81;102902.28;5022185;28;99095;-69
2022/03/01 01:37:06;;;;;;;1999.90;999.90;;;;;;;-3.86;48.72;102894.78;5017282;28;98003;-68
2022/03/01 01:39:34;;;;;;;1999.90;999.90;;;;;;;-4.16;49.37;102896.56;5017597;27;98682;-69
2022/03/01 01:42:02;;;;;;;1999.90;999.90;;;;;;;-4.23;49.54;102899.22;5019505;28;99050;-69
2022/03/01 01:44:31;;;;;;;1999.90;999.90;;;;;;;-4.31;49.70;102891.28;5021952;27;99311;-70
2022/03/01 01:46:59;;;;;;;1999.90;999.90;;;;;;;-3.82;48.74;102890.84;5019103;28;97110;-69
2022/03/01 01:49:27;;;;;;;1999.90;999.90;;;;;;;-4.14;49.23;102889.88;5018551;28;98344;-68
2022/03/01 01:51:55;;;;;;;1999.90;999.90;;;;;;;-4.23;49.42;102891.44;5020970;27;98946;-69
2022/03/01 01:54:23;;;;;;;1999.90;999.90;;;;;;;-3.72;48.15;102890.22;5015661;27;100417;-68
2022/03/01 01:56:50;;;;;;;1999.90;999.90;;;;;;;-3.50;47.58;102882.38;5019087;27;97438;-68
2022/03/01 01:59:18;;;;;;;1999.90;999.90;;;;;;;-3.37;47.11;102885.56;5018484;28;98425;-69
2022/03/01 02:01:47;;;;;;;1999.90;999.90;;;;;;;-3.32;46.82;102878.25;5013673;28;97788;-69
2022/03/01 02:04:15;;;;;;;1999.90;999.90;;;;;;;-3.27;46.77;102882.28;5017806;28;98017;-69
2022/03/01 02:06:51;;;;;;;1999.90;999.90;;;;;;;-3.80;47.72;102883.25;5019315;27;96992;-69
2022/03/01 02:09:19;;;;;;;1999.90;999.90;;;;;;;-4.03;48.75;102876.41;5037098;27;97714;-69
2022/03/01 02:11:47;;;;;;;1999.90;999.90;;;;;;;-4.16;48.99;102880.03;5017300;28;100907;-69
2022/03/01 02:14:15;;;;;;;1999.90;999.90;;;;;;;-3.67;47.54;102882.16;5017115;27;98788;-69
2022/03/01 02:16:44;;;;;;;1999.90;999.90;;;;;;;-3.48;47.06;102879.94;5015718;28;97815;-69
2022/03/01 02:19:14;;;;;;;1999.90;999.90;;;;;;;-3.99;48.25;102878.56;5020120;28;97841;-69
2022/03/01 02:21:47;;;;;;;1999.90;999.90;;;;;;;-3.65;47.15;102870.25;5017143;28;99399;-69
2022/03/01 02:24:15;;;;;;;1999.90;999.90;;;;;;;-4.06;48.15;102873.44;5017940;28;100516;-69
2022/03/01 02:26:44;;;;;;;1999.90;999.90;;;;;;;-4.25;48.66;102868.59;4999762;28;98677;-69
2022/03/01 02:29:12;;;;;;;1999.90;999.90;;;;;;;-4.37;49.36;102860.31;5018609;27;97841;-69
2022/03/01 02:31:40;;;;;;;1999.90;999.90;;;;;;;-4.46;49.30;102861.88;5017090;28;97721;-69
2022/03/01 02:34:08;;;;;;;1999.90;999.90;;;;;;;-4.54;49.42;102862.72;5017665;28;98689;-69
2022/03/01 02:36:36;;;;;;;1999.90;999.90;;;;;;;-4.04;48.21;102858.94;5015336;28;98124;-69
2022/03/01 02:39:05;;;;;;;1999.90;999.90;;;;;;;-4.37;48.81;102857.72;5017321;27;98141;-69
2022/03/01 02:41:37;;;;;;;1999.90;999.90;;;;;;;-4.52;49.66;102847.28;5015719;27;100769;-68
2022/03/01 02:44:06;;;;;;;1999.90;999.90;;;;;;;-4.57;49.51;102854.53;5036094;27;97727;-68
2022/03/01 02:46:36;;;;;;;1999.90;999.90;;;;;;;-4.61;49.63;102861.81;5018415;27;98272;-68
2022/03/01 02:49:04;;;;;;;1999.90;999.90;;;;;;;-4.66;49.83;102861.28;5019429;27;97291;-68
2022/03/01 02:51:32;;;;;;;1999.90;999.90;;;;;;;-4.69;49.68;102860.94;5016447;28;99674;-68
2022/03/01 02:54:00;;;;;;;1999.90;999.90;;;;;;;-4.74;49.90;102859.50;5016830;27;97701;-69
2022/03/01 02:56:29;;;;;;;1999.90;999.90;;;;;;;-4.76;49.55;102867.84;5017723;28;97680;-68
2022/03/01 02:58:58;;;;;;;1999.90;999.90;;;;;;;-4.79;49.74;102854.53;5016540;28;98282;-68
2022/03/01 03:01:27;;;;;;;1999.90;999.90;;;;;;;-4.83;49.69;102855.84;5014967;27;98862;-68
2022/03/01 03:03:55;;;;;;;1999.90;999.90;;;;;;;-4.84;50.10;102861.78;5018654;27;97610;-68
2022/03/01 03:06:24;;;;;;;1999.90;999.90;;;;;;;-4.88;49.97;102860.50;5019504;28;96848;-69
2022/03/01 03:08:51;;;;;;;1999.90;999.90;;;;;;;-4.88;50.07;102861.25;5035063;27;97344;-68
2022/03/01 03:11:19;;;;;;;1999.90;999.90;;;;;;;-4.88;49.83;102859.56;5016672;28;98829;-68
2022/03/01 03:13:48;;;;;;;1999.90;999.90;;;;;;;-4.86;49.76;102852.88;5035868;27;99282;-69
2022/03/01 03:16:17;;;;;;;1999.90;999.90;;;;;;;-4.42;48.90;102852.75;5016462;27;97114;-68
2022/03/01 03:18:45;;;;;;;1999.90;999.90;;;;;;;-4.69;49.31;102854.81;5018350;28;97164;-69
2022/03/01 03:21:13;;;;;;;1999.90;999.90;;;;;;;-4.26;48.48;102851.16;5015681;28;100303;-69
2022/03/01 03:23:41;;;;;;;1999.90;999.90;;;;;;;-4.58;49.08;102851.78;5016319;28;100581;-68
2022/03/01 03:26:09;;;;;;;1999.90;999.90;;;;;;;-4.18;48.04;102850.34;5017577;28;97469;-69
2022/03/01 03:28:37;;;;;;;1999.90;999.90;;;;;;;-3.96;47.58;102849.41;5014469;27;97983;-69
2022/03/01 03:31:07;;;;;;;1999.90;999.90;;;;;;;-3.86;47.07;102847.97;5016820;27;101372;-69
2022/03/01 03:33:35;;;;;;;1999.90;999.90;;;;;;;-3.73;47.01;102855.47;5015564;27;97878;-69
2022/03/01 03:36:03;;;;;;;1999.90;999.90;;;;;;;-4.21;48.18;102852.59;5017424;28;98242;-69
2022/03/01 03:38:31;;;;;;;1999.90;999.90;;;;;;;-4.43;48.38;102846.66;5013749;27;97938;-68
2022/03/01 03:40:58;;;;;;;1999.90;999.90;;;;;;;-4.55;48.89;102853.03;5019837;28;97741;-69
2022/03/01 03:43:26;;;;;;;1999.90;999.90;;;;;;;-4.63;49.08;102846.06;5016214;28;97609;-68
2022/03/01 03:45:54;;;;;;;1999.90;999.90;;;;;;;-4.72;49.14;102852.81;5036185;27;97796;-69
2022/03/01 03:48:23;;;;;;;1999.90;999.90;;;;;;;-4.27;48.14;102846.72;5013087;28;98398;-69
2022/03/01 03:50:54;;;;;;;1999.90;999.90;;;;;;;-4.58;48.60;102847.50;5020706;28;98577;-69
2022/03/01 03:53:22;;;;;;;1999.90;999.90;;;;;;;-4.67;49.20;102853.31;5019558;27;97941;-69
2022/03/01 03:55:49;;;;;;;1999.90;999.90;;;;;;;-4.21;47.78;102844.81;5015784;27;97767;-68
2022/03/01 03:58:17;;;;;;;1999.90;999.90;;;;;;;-3.99;47.04;102846.47;5015631;28;97182;-69
2022/03/01 04:00:45;;;;;;;1999.90;999.90;;;;;;;-4.44;48.23;102844.81;5016526;28;98720;-69
2022/03/01 04:03:13;;;;;;;1999.90;999.90;;;;;;;-4.60;48.82;102845.47;5018991;27;101521;-69
2022/03/01 04:05:42;;;;;;;1999.90;999.90;;;;;;;-4.71;48.80;102849.44;5013055;27;98287;-68
2022/03/01 04:08:13;;;;;;;1999.90;999.90;;;;;;;-4.25;47.83;102838.34;5018336;27;98393;-69
2022/03/01 04:10:41;;;;;;;1999.90;999.90;;;;;;;-4.00;47.01;102842.00;5013678;27;97945;-68
2022/03/01 04:13:09;;;;;;;1999.90;999.90;;;;;;;-4.48;47.97;102834.81;5020108;27;99124;-69
2022/03/01 04:15:37;;;;;;;1999.90;999.90;;;;;;;-4.65;48.39;102831.97;5020260;28;97923;-69
2022/03/01 04:18:05;;;;;;;1999.90;999.90;;;;;;;-4.19;47.22;102822.53;5013534;27;98940;-67
2022/03/01 04:20:33;;;;;;;1999.90;999.90;;;;;;;-4.56;48.18;102834.69;5016032;27;98784;-68
2022/03/01 04:23:04;;;;;;;1999.90;999.90;;;;;;;-4.69;48.64;102834.97;5016082;27;99133;-68
2022/03/01 04:25:32;;;;;;;1999.90;999.90;;;;;;;-4.25;47.54;102824.41;5012194;27;97748;-69
2022/03/01 04:28:00;;;;;;;1999.90;999.90;;;;;;;-4.03;46.87;102827.00;5016150;27;97533;-69
2022/03/01 04:30:28;;;;;;;1999.90;999.90;;;;;;;-3.93;46.48;102837.66;5015019;27;99502;-68
2022/03/01 04:32:58;;;;;;;1999.90;999.90;;;;;;;-3.82;46.00;102833.63;5015718;27;100012;-69
2022/03/01 04:35:27;;;;;;;1999.90;999.90;;;;;;;-3.78;45.89;102824.50;5013608;27;98466;-69
2022/03/01 04:37:55;;;;;;;1999.90;999.90;;;;;;;-3.76;45.62;102817.78;5014979;27;98721;-69
2022/03/01 04:40:24;;;;;;;1999.90;999.90;;;;;;;-3.73;45.79;102818.16;5014254;28;98652;-69
2022/03/01 04:42:52;;;;;;;1999.90;999.90;;;;;;;-3.71;45.54;102819.25;5013413;27;99121;-68
2022/03/01 04:45:20;;;;;;;1999.90;999.90;;;;;;;-3.68;45.44;102816.97;5013513;28;97929;-68
2022/03/01 04:47:48;;;;;;;1999.90;999.90;;;;;;;-3.68;45.56;102816.97;5015675;28;98488;-70
2022/03/01 04:50:16;;;;;;;1999.90;999.90;;;;;;;-4.24;46.70;102821.09;5016397;28;98486;-69
2022/03/01 04:52:44;;;;;;;1999.90;999.90;;;;;;;-3.94;46.02;102825.44;5013555;27;98837;-69
2022/03/01 04:55:12;;;;;;;1999.90;999.90;;;;;;;-4.36;46.94;102827.47;5001430;28;98216;-69
2022/03/01 04:57:42;;;;;;;1999.90;999.90;;;;;;;-4.03;46.17;102819.19;5016992;28;99385;-69
2022/03/01 05:00:11;;;;;;;1999.90;999.90;;;;;;;-4.46;47.18;102825.50;5018616;28;98819;-68
2022/03/01 05:02:40;;;;;;;1999.90;999.90;;;;;;;-4.09;46.43;102823.72;5015735;28;97826;-68
2022/03/01 05:05:10;;;;;;;1999.90;999.90;;;;;;;-3.95;45.73;102820.06;5016590;28;97207;-70
2022/03/01 05:07:39;;;;;;;1999.90;999.90;;;;;;;-3.88;45.41;102825.19;5002128;28;97534;-69
2022/03/01 05:10:08;;;;;;;1999.90;999.90;;;;;;;-4.38;46.39;102829.91;5021024;28;98791;-69
2022/03/01 05:12:44;;;;;;;1999.90;999.90;;;;;;;-4.53;47.10;102830.75;5021573;28;97721;-69
2022/03/01 05:15:12;;;;;;;1999.90;999.90;;;;;;;-4.14;46.39;102817.09;5018977;28;98833;-69
2022/03/01 05:17:40;;;;;;;1999.90;999.90;;;;;;;-4.54;47.23;102823.75;5017109;27;100090;-69
2022/03/01 05:20:09;;;;;;;1999.90;999.90;;;;;;;-4.59;47.28;102829.16;5015177;28;98147;-70
2022/03/01 05:22:38;;;;;;;1999.90;999.90;;;;;;;-4.71;47.54;102825.16;5012639;28;97809;-69
2022/03/01 05:25:09;;;;;;;1999.90;999.90;;;;;;;-4.83;47.88;102827.28;5017198;27;98974;-69
2022/03/01 05:27:37;;;;;;;1999.90;999.90;;;;;;;-4.89;48.25;102826.56;5017159;27;98446;-69
2022/03/01 05:30:08;;;;;;;1999.90;999.90;;;;;;;-4.96;48.41;102830.16;5019289;28;99367;-70
2022/03/01 05:32:40;;;;;;;1999.90;999.90;;;;;;;-4.94;48.30;102822.53;5022814;27;99489;-70
2022/03/01 05:35:09;;;;;;;1999.90;999.90;;;;;;;-4.94;48.21;102840.69;5021230;27;97969;-69
2022/03/01 05:37:38;;;;;;;1999.90;999.90;;;;;;;-4.97;48.23;102837.72;5037493;27;98968;-68
2022/03/01 05:40:08;;;;;;;1999.90;999.90;;;;;;;-5.03;48.48;102837.06;5019309;28;99339;-68
2022/03/01 05:42:35;;;;;;;1999.90;999.90;;;;;;;-5.03;48.49;102840.53;5020949;27;99425;-67
2022/03/01 05:45:04;;;;;;;1999.90;999.90;;;;;;;-5.03;48.31;102840.53;5021984;27;97009;-68
2022/03/01 05:47:33;;;;;;;1999.90;999.90;;;;;;;-5.08;48.27;102840.75;5020941;28;98341;-67
2022/03/01 05:50:03;;;;;;;1999.90;999.90;;;;;;;-5.14;48.58;102840.06;4995383;28;99811;-67
2022/03/01 05:52:31;;;;;;;1999.90;999.90;;;;;;;-5.15;48.48;102841.72;5036865;27;99730;-68
2022/03/01 05:55:00;;;;;;;1999.90;999.90;;;;;;;-5.14;48.58;102850.44;5019131;28;97580;-67
2022/03/01 05:57:29;;;;;;;1999.90;999.90;;;;;;;-4.66;47.67;102832.72;5019143;28;97233;-67
2022/03/01 05:59:57;;;;;;;1999.90;999.90;;;;;;;-4.37;46.77;102839.53;5018468;28;98328;-69
2022/03/01 06:02:25;;;;;;;1999.90;999.90;;;;;;;-4.19;45.98;102844.22;5018114;27;97272;-68
2022/03/01 06:04:54;;;;;;;1999.90;999.90;;;;;;;-4.09;46.01;102852.31;5016408;28;96914;-68
2022/03/01 06:07:22;;;;;;;1999.90;999.90;;;;;;;-4.06;45.89;102849.13;5013228;28;98088;-67
2022/03/01 06:09:50;;;;;;;1999.90;999.90;;;;;;;-3.97;45.82;102850.16;4994069;28;102062;-67
2022/03/01 06:12:18;;;;;;;1999.90;999.90;;;;;;;-4.43;46.71;102848.34;5009947;28;97626;-67
2022/03/01 06:14:46;;;;;;;1999.90;999.90;;;;;;;-4.56;47.18;102856.41;5015160;27;98830;-67
2022/03/01 06:17:13;;;;;;;1999.90;999.90;;;;;;;-4.70;47.53;102858.19;5018026;28;98530;-68
2022/03/01 06:19:41;;;;;;;1999.90;999.90;;;;;;;-4.31;46.66;102858.44;5017870;28;97888;-67
2022/03/01 06:22:10;;;;;;;1999.90;999.90;;;;;;;-4.67;47.64;102862.03;5020108;28;99311;-68
2022/03/01 06:24:41;;;;;;;1999.90;999.90;;;;;;;-4.69;47.45;102858.34;5020003;28;97333;-67
2022/03/01 06:27:09;;;;;;;1999.90;999.90;;;;;;;-4.74;47.70;102863.75;5025171;28;97327;-68
2022/03/01 06:29:37;;;;;;;1999.90;999.90;;;;;;;-4.92;48.35;102866.06;5025098;27;99021;-67
2022/03/01 06:32:06;;;;;;;1999.90;999.90;;;;;;;-4.53;47.39;102869.72;5022386;27;97556;-67
2022/03/01 06:34:35;;;;;;;1999.90;999.90;;;;;;;-4.27;46.57;102868.44;5022329;28;97586;-67
2022/03/01 06:37:24;;;;;;;1999.90;999.90;;;;;;;-4.72;47.75;102859.66;5021545;28;97287;-67
2022/03/01 06:39:53;;;;;;;1999.90;999.90;;;;;;;-4.82;47.94;102868.06;5024118;28;97728;-68
2022/03/01 06:42:21;;;;;;;1999.90;999.90;;;;;;;-4.92;48.14;102872.97;5023654;28;98000;-68
2022/03/01 06:44:49;;;;;;;1999.90;999.90;;;;;;;-5.02;48.60;102870.97;5022556;27;97071;-67
2022/03/01 06:47:18;;;;;;;1999.90;999.90;;;;;;;-5.02;48.52;102865.78;5021567;28;97176;-67
2022/03/01 06:49:46;;;;;;;1999.90;999.90;;;;;;;-5.01;48.76;102867.59;5025346;28;97772;-68
2022/03/01 06:52:15;;;;;;;1999.90;999.90;;;;;;;-5.01;48.34;102865.00;5023755;28;97704;-68
2022/03/01 06:54:47;;;;;;;1999.90;999.90;;;;;;;-5.02;48.57;102867.44;5023638;28;97849;-68
2022/03/01 06:57:16;;;;;;;1999.90;999.90;;;;;;;-5.01;48.62;102874.50;5020518;27;97121;-67
2022/03/01 06:59:44;;;;;;;1999.90;999.90;;;;;;;-5.01;48.80;102874.50;5024037;28;97846;-68
2022/03/01 07:02:12;;;;;;;1999.90;999.90;;;;;;;-5.04;48.52;102869.84;5022681;28;99288;-67
2022/03/01 07:04:41;;;;;;;1999.90;999.90;;;;;;;-5.00;48.87;102871.13;5023661;27;97031;-67
2022/03/01 07:07:09;;;;;;;1999.90;999.90;;;;;;;-4.97;48.56;102869.81;5024296;28;97197;-67
2022/03/01 07:09:37;;;;;;;1999.90;999.90;;;;;;;-4.94;48.81;102877.97;5021722;27;97083;-67
2022/03/01 07:12:07;;;;;;;1999.90;999.90;;;;;;;-4.93;48.66;102864.25;5021675;28;98303;-67
2022/03/01 07:14:35;;;;;;;1999.90;999.90;;;;;;;-4.88;48.44;102869.03;5023305;27;97058;-67
2022/03/01 07:17:03;;;;;;;1999.90;999.90;;;;;;;-4.86;48.52;102872.75;5025069;28;97117;-67
2022/03/01 07:19:31;;;;;;;1999.90;999.90;;;;;;;-4.84;48.79;102876.44;5021026;28;100727;-67
2022/03/01 07:21:59;;;;;;;1999.90;999.90;;;;;;;-4.82;48.54;102883.66;5021402;28;99472;-68
2022/03/01 07:24:27;;;;;;;1999.90;999.90;;;;;;;-4.76;48.40;102878.25;5021852;28;97443;-66
2022/03/01 07:26:55;;;;;;;1999.90;999.90;;;;;;;-4.78;48.58;102884.91;5022583;28;97729;-67
2022/03/01 07:29:24;;;;;;;1999.90;999.90;;;;;;;-4.78;48.84;102890.13;5020691;28;97914;-67
2022/03/01 07:31:52;;;;;;;1999.90;999.90;;;;;;;-4.77;48.65;102894.59;5022529;28;101625;-68
2022/03/01 07:34:25;;;;;;;1999.90;999.90;;;;;;;-4.73;48.45;102905.47;5021653;28;97793;-68
2022/03/01 07:36:53;;;;;;;1999.90;999.90;;;;;;;-4.69;48.54;102905.09;5040706;27;98491;-67
2022/03/01 07:39:21;;;;;;;1999.90;999.90;;;;;;;-4.66;48.58;102905.44;5022639;28;97807;-67
2022/03/01 07:41:49;;;;;;;1999.90;999.90;;;;;;;-4.62;48.55;102904.13;5021322;27;98153;-67
2022/03/01 07:44:17;;;;;;;1999.90;999.90;;;;;;;-4.55;48.45;102899.81;5023204;27;97180;-67
2022/03/01 07:46:47;;;;;;;1999.90;999.90;;;;;;;-4.50;48.44;102885.69;5022711;27;97828;-66
2022/03/01 07:49:15;;;;;;;1999.90;999.90;;;;;;;-4.42;48.40;102876.16;5021064;28;100048;-67
2022/03/01 07:51:43;;;;;;;1999.90;999.90;;;;;;;-4.38;48.27;102884.47;5023051;28;98782;-67
2022/03/01 07:54:10;;;;;;;1999.90;999.90;;;;;;;-4.37;48.30;102878.50;5021175;28;96952;-67
2022/03/01 07:56:39;;;;;;;1999.90;999.90;;;;;;;-4.32;48.06;102881.66;5020955;28;97900;-67
2022/03/01 07:59:07;;;;;;;1999.90;999.90;;;;;;;-4.26;48.28;102878.06;5020702;28;99284;-67
2022/03/01 08:01:36;;;;;;;1999.90;999.90;;;;;;;-4.21;48.31;102870.81;5023519;28;98010;-67
2022/03/01 08:04:05;;;;;;;1999.90;999.90;;;;;;;-4.18;48.22;102872.06;5023293;28;96854;-68
2022/03/01 08:06:33;;;;;;;1999.90;999.90;;;;;;;-4.13;48.37;102873.50;5022180;27;96962;-67
2022/03/01 08:09:04;;;;;;;1999.90;999.90;;;;;;;-4.04;47.97;102869.34;5018948;27;98810;-67
2022/03/01 08:11:32;;;;;;;1999.90;999.90;;;;;;;-3.58;47.24;102866.66;5021463;28;99177;-68
2022/03/01 08:14:00;;;;;;;1999.90;999.90;;;;;;;-3.70;47.30;102866.22;5022212;27;97527;-68
2022/03/01 08:16:28;;;;;;;1999.90;999.90;;;;;;;-3.66;47.26;102871.03;5022307;28;96789;-69
2022/03/01 08:18:56;;;;;;;1999.90;999.90;;;;;;;-3.30;46.30;102864.66;5020473;27;98096;-68
2022/03/01 08:21:25;;;;;;;1999.90;999.90;;;;;;;-3.44;46.50;102863.91;5018634;28;100190;-68
2022/03/01 08:23:53;;;;;;;1999.90;999.90;;;;;;;-3.46;46.93;102853.34;5022383;28;97162;-68
2022/03/01 08:26:20;;;;;;;1999.90;999.90;;;;;;;-3.36;46.48;102857.84;5021284;28;98035;-69
2022/03/01 08:28:49;;;;;;;1999.90;999.90;;;;;;;-3.31;46.77;102855.00;5020618;27;100887;-68
2022/03/01 08:31:17;;;;;;;1999.90;999.90;;;;;;;-3.03;46.37;102853.69;5021451;27;98735;-69
2022/03/01 08:33:46;;;;;;;1999.90;999.90;;;;;;;-2.80;45.03;102845.78;5018562;28;96914;-68
2022/03/01 08:36:18;;;;;;;1999.90;999.90;;;;;;;-2.55;44.81;102838.13;5022872;27;98079;-67
2022/03/01 08:38:47;;;;;;;1999.90;999.90;;;;;;;-2.37;44.04;102833.91;5027109;28;98078;-67
2022/03/01 08:41:14;;;;;;;1999.90;999.90;;;;;;;-2.20;43.69;102836.63;5026327;28;96864;-67
2022/03/01 08:43:42;;;;;;;1999.90;999.90;;;;;;;-2.47;44.79;102831.13;5028181;28;97736;-68
2022/03/01 08:46:11;;;;;;;1999.90;999.90;;;;;;;-2.19;43.88;102841.06;5026696;28;97012;-68
2022/03/01 08:48:39;;;;;;;1999.90;999.90;;;;;;;-2.33;44.77;102838.69;5020804;28;100848;-69
2022/03/01 08:51:08;;;;;;;1999.90;999.90;;;;;;;-2.04;43.83;102833.19;5017047;28;99845;-68
2022/03/01 08:53:36;;;;;;;1999.90;999.90;;;;;;;-1.92;43.66;102836.13;5019429;28;97309;-68
2022/03/01 08:56:05;;;;;;;1999.90;999.90;;;;;;;-1.75;43.33;102841.41;5021756;27;97229;-68
2022/03/01 08:58:33;;;;;;;1999.90;999.90;;;;;;;-2.03;43.78;102835.03;5022012;27;97813;-68
2022/03/01 09:01:02;;;;;;;1999.90;999.90;;;;;;;-2.09;43.59;102837.00;5021937;27;97562;-68
2022/03/01 09:03:30;;;;;;;1999.90;999.90;;;;;;;-1.87;43.69;102828.03;5002436;28;97049;-67
2022/03/01 09:06:12;;;;;;;1999.90;999.90;;;;;;;-2.03;44.22;102829.81;5021541;28;97565;-68
2022/03/01 09:08:40;;;;;;;1999.90;999.90;;;;;;;-2.02;43.63;102822.94;5020192;28;100178;-68
2022/03/01 09:11:10;;;;;;;1999.90;999.90;;;;;;;-2.04;44.14;102821.84;5020438;28;97658;-67
2022/03/01 09:13:39;;;;;;;1999.90;999.90;;;;;;;-1.77;43.83;102819.47;5020346;28;96811;-68
2022/03/01 09:16:07;;;;;;;1999.90;999.90;;;;;;;-1.93;43.82;102810.84;5020172;28;96887;-68
2022/03/01 09:18:35;;;;;;;1999.90;999.90;;;;;;;-1.64;43.03;102813.81;5018746;27;97884;-68
2022/03/01 09:21:04;;;;;;;1999.90;999.90;;;;;;;-1.46;42.40;102808.78;5021224;28;97671;-68
2022/03/01 09:23:31;;;;;;;1999.90;999.90;;;;;;;-1.66;43.01;102808.44;5024326;27;97453;-68
2022/03/01 09:25:59;;;;;;;1999.90;999.90;;;;;;;-1.71;44.00;102801.84;5008552;28;97223;-67
2022/03/01 09:28:31;;;;;;;1999.90;999.90;;;;;;;-1.69;43.92;102799.38;5022148;28;100003;-67
2022/03/01 09:30:59;;;;;;;1999.90;999.90;;;;;;;-1.67;43.73;102805.69;5024934;27;98702;-68
2022/03/01 09:33:27;;;;;;;1999.90;999.90;;;;;;;-1.65;44.09;102798.94;5024920;27;97745;-68
2022/03/01 09:35:55;;;;;;;1999.90;999.90;;;;;;;-1.59;44.13;102794.31;5023948;28;97182;-69
2022/03/01 09:38:24;;;;;;;1999.90;999.90;;;;;;;-1.72;44.16;102788.63;5023003;28;97870;-69
2022/03/01 09:40:51;;;;;;;1999.90;999.90;;;;;;;-1.48;43.51;102792.03;5025845;28;99297;-68
2022/03/01 09:43:20;;;;;;;1999.90;999.90;;;;;;;-1.61;43.98;102774.94;5026036;27;97510;-68
2022/03/01 09:45:49;;;;;;;1999.90;999.90;;;;;;;-1.62;43.56;102784.50;5024677;28;97536;-68
2022/03/01 09:48:17;;;;;;;1999.90;999.90;;;;;;;-1.59;43.53;102783.88;5023536;28;97726;-69
2022/03/01 09:50:46;;;;;;;1999.90;999.90;;;;;;;-1.57;43.54;102782.34;5024582;28;97500;-68
2022/03/01 09:53:14;;;;;;;1999.90;999.90;;;;;;;-1.52;44.38;102782.03;5008964;28;96858;-69
2022/03/01 09:55:42;;;;;;;1999.90;999.90;;;;;;;-1.19;43.68;102779.28;5024712;28;97722;-68
2022/03/01 09:58:09;;;;;;;1999.90;999.90;;;;;;;-1.01;42.64;102770.63;5021715;28;98335;-69
2022/03/01 10:00:37;;;;;;;1999.90;999.90;;;;;;;-0.86;41.62;102777.38;5004058;28;99176;-69
2022/03/01 10:03:07;;;;;;;1999.90;999.90;;;;;;;-0.73;41.41;102775.22;5006007;28;97278;-68
2022/03/01 10:05:37;;;;;;;1999.90;999.90;;;;;;;-0.87;42.26;102766.00;5008439;28;96797;-68
2022/03/01 10:08:10;;;;;;;1999.90;999.90;;;;;;;-0.88;42.14;102765.84;5024424;27;97667;-68
2022/03/01 10:10:41;;;;;;;1999.90;999.90;;;;;;;-0.89;42.69;102771.88;5026148;28;99518;-68
2022/03/01 10:13:09;;;;;;;1999.90;999.90;;;;;;;-0.91;42.85;102769.13;5025597;27;97377;-69
2022/03/01 10:15:39;;;;;;;1999.90;999.90;;;;;;;-0.89;42.63;102771.88;5024098;27;97529;-68
2022/03/01 10:18:13;;;;;;;1999.90;999.90;;;;;;;-0.89;42.49;102761.41;5022558;28;99481;-66
2022/03/01 10:20:44;;;;;;;1999.90;999.90;;;;;;;-0.87;42.74;102754.66;5023955;27;97300;-70
2022/03/01 10:23:13;;;;;;;1999.90;999.90;;;;;;;-0.86;42.83;102751.25;5024696;28;97007;-70
2022/03/01 10:25:42;;;;;;;1999.90;999.90;;;;;;;-0.84;42.82;102750.66;5025531;28;98024;-69
2022/03/01 10:28:11;;;;;;;1999.90;999.90;;;;;;;-0.81;42.86;102755.22;5024577;27;99149;-69
2022/03/01 10:30:39;;;;;;;1999.90;999.90;;;;;;;-0.76;43.20;102746.16;5024233;27;97884;-69
2022/03/01 10:33:08;;;;;;;1999.90;999.90;;;;;;;-0.73;43.04;102749.06;5023247;27;97502;-69
2022/03/01 10:35:39;;;;;;;1999.90;999.90;;;;;;;-0.68;43.11;102749.53;5024569;28;97125;-66
2022/03/01 10:38:08;;;;;;;1999.90;999.90;;;;;;;-0.63;42.94;102740.44;5022306;28;99187;-69
2022/03/01 10:40:37;;;;;;;1999.90;999.90;;;;;;;-0.59;43.19;102753.94;5024869;28;99719;-68
2022/03/01 10:43:09;;;;;;;1999.90;999.90;;;;;;;-0.56;42.78;102751.66;5008682;28;98054;-68
2022/03/01 10:45:41;;;;;;;1999.90;999.90;;;;;;;-0.52;42.97;102745.00;5025028;27;96841;-68
2022/03/01 10:48:11;;;;;;;1999.90;999.90;;;;;;;-0.47;43.32;102744.69;5024154;27;99523;-68
2022/03/01 10:50:41;;;;;;;1999.90;999.90;;;;;;;-0.41;43.11;102742.63;5021974;28;99757;-68
2022/03/01 10:53:09;;;;;;;1999.90;999.90;;;;;;;-0.40;43.17;102736.66;5024426;27;96847;-67
2022/03/01 10:55:38;;;;;;;1999.90;999.90;;;;;;;-0.35;43.12;102727.53;5022103;28;97446;-68